Time;durP1;ratioP1;P1;durP2;ratioP2;P2;SDS_P1;SDS_P2;PMS_P1;PMS_P2;Temp;Humidity;BMP_temperature;BMP_pressure;BME280_temperature;BME280_humidity;BME280_pressure;Samples;Min_cycle;Max_cycle;Signal;HPM_P1;HPM_P2
2022/08/31 00:05:58;;;;;;;5.33;4.87;;;20.20;98.30;;;;;;4977007;28;20456;-88
2022/08/31 00:08:25;;;;;;;6.13;4.63;;;20.20;98.30;;;;;;4979747;28;20491;-88
2022/08/31 00:11:08;;;;;;;5.87;5.33;;;20.20;98.50;;;;;;4972048;28;21100;-88
2022/08/31 00:13:35;;;;;;;5.43;5.00;;;20.20;98.40;;;;;;4973244;28;20468;-88
2022/08/31 00:16:01;;;;;;;5.40;4.90;;;20.20;98.70;;;;;;4973970;28;20528;-88
2022/08/31 00:18:27;;;;;;;5.80;5.23;;;20.20;98.40;;;;;;4988754;28;20607;-88
2022/08/31 00:20:53;;;;;;;5.07;4.60;;;20.20;98.50;;;;;;4976395;28;20440;-88
2022/08/31 00:23:22;;;;;;;5.40;4.90;;;20.20;98.50;;;;;;4975364;28;20441;-88
2022/08/31 00:25:48;;;;;;;5.73;5.23;;;20.10;98.80;;;;;;4979573;28;20215;-88
2022/08/31 00:28:35;;;;;;;5.40;4.90;;;20.00;98.80;;;;;;4975979;28;20549;-87
2022/08/31 00:31:00;;;;;;;5.40;5.00;;;20.10;99.10;;;;;;4974169;28;20182;-87
2022/08/31 00:33:26;;;;;;;5.80;5.30;;;20.10;99.00;;;;;;4985742;28;20562;-87
2022/08/31 00:35:51;;;;;;;5.67;4.90;;;20.20;98.60;;;;;;4975768;28;20209;-86
2022/08/31 00:38:48;;;;;;;5.67;5.27;;;20.20;98.60;;;;;;4975779;28;20186;-88
2022/08/31 00:41:16;;;;;;;4.87;4.57;;;20.20;98.10;;;;;;4970399;28;20194;-89
2022/08/31 00:44:06;;;;;;;5.40;5.00;;;20.30;98.10;;;;;;4977927;28;20441;-89
2022/08/31 00:46:36;;;;;;;5.80;5.20;;;20.40;97.90;;;;;;4977384;28;20457;-89
2022/08/31 00:49:09;;;;;;;5.33;4.77;;;20.30;98.00;;;;;;4978663;28;20515;-88
2022/08/31 00:51:47;;;;;;;5.10;4.50;;;20.00;98.50;;;;;;4971248;28;20457;-88
2022/08/31 00:54:16;;;;;;;5.53;5.03;;;20.10;98.60;;;;;;4971921;28;20487;-88
2022/08/31 00:56:43;;;;;;;5.70;5.07;;;20.10;98.30;;;;;;4970607;28;20441;-88
2022/08/31 00:59:19;;;;;;;5.50;4.97;;;20.10;98.20;;;;;;4977534;28;20471;-88
2022/08/31 01:01:47;;;;;;;5.87;5.00;;;20.30;98.00;;;;;;4969742;28;20437;-88
2022/08/31 01:04:14;;;;;;;5.73;5.23;;;20.20;97.60;;;;;;4987233;28;20901;-88
2022/08/31 01:06:40;;;;;;;5.83;5.33;;;20.10;97.60;;;;;;4974113;28;20456;-87
2022/08/31 01:09:14;;;;;;;6.37;5.50;;;20.10;97.80;;;;;;4977061;28;20463;-86
2022/08/31 01:11:41;;;;;;;7.00;5.90;;;20.00;99.80;;;;;;4971354;28;21030;-87
2022/08/31 01:14:13;;;;;;;6.87;6.00;;;19.70;99.90;;;;;;4974091;28;20477;-88
2022/08/31 01:16:50;;;;;;;6.87;6.27;;;19.40;99.90;;;;;;4966590;28;20449;-86
2022/08/31 01:19:33;;;;;;;6.53;5.90;;;19.30;99.90;;;;;;4974406;28;20456;-88
2022/08/31 01:22:09;;;;;;;9.90;6.37;;;19.30;99.90;;;;;;4973704;28;20441;-87
2022/08/31 01:24:38;;;;;;;6.87;6.37;;;19.20;99.90;;;;;;4980367;28;20436;-86
2022/08/31 01:27:06;;;;;;;7.07;6.47;;;19.00;99.90;;;;;;4988259;28;20452;-87
2022/08/31 01:29:33;;;;;;;8.27;7.30;;;19.00;99.90;;;;;;4972345;28;20441;-89
2022/08/31 01:31:59;;;;;;;9.43;7.40;;;18.80;99.90;;;;;;4972025;28;20459;-87
2022/08/31 01:34:24;;;;;;;8.47;7.47;;;18.60;99.90;;;;;;4973046;28;21695;-88
2022/08/31 01:36:51;;;;;;;9.47;7.73;;;18.40;99.90;;;;;;4988285;28;20556;-88
2022/08/31 01:39:19;;;;;;;9.07;7.90;;;18.30;99.90;;;;;;4972525;28;20181;-87
2022/08/31 01:42:09;;;;;;;9.10;8.10;;;18.30;99.90;;;;;;4973111;28;20469;-86
2022/08/31 01:44:45;;;;;;;9.90;8.00;;;18.30;99.90;;;;;;4972272;28;20442;-88
2022/08/31 01:47:14;;;;;;;11.13;9.83;;;18.20;99.90;;;;;;4974688;28;20441;-86
2022/08/31 01:49:39;;;;;;;10.83;8.83;;;18.10;99.90;;;;;;4974256;28;20983;-87
2022/08/31 01:52:05;;;;;;;10.27;9.27;;;18.00;99.90;;;;;;4989342;28;20553;-87
2022/08/31 01:54:31;;;;;;;10.10;8.73;;;18.00;99.90;;;;;;4972788;28;20225;-87
2022/08/31 01:56:57;;;;;;;10.63;9.60;;;17.90;99.90;;;;;;4965873;28;20439;-88
2022/08/31 01:59:30;;;;;;;10.93;9.70;;;17.80;99.90;;;;;;4971601;28;20648;-87
2022/08/31 02:01:56;;;;;;;10.73;9.70;;;17.60;99.90;;;;;;4984468;28;20648;-87
2022/08/31 02:04:31;;;;;;;12.07;9.80;;;17.60;99.90;;;;;;4971634;28;20449;-88
2022/08/31 02:07:05;;;;;;;11.20;9.23;;;17.50;99.90;;;;;;4960872;28;20438;-91
2022/08/31 02:09:31;;;;;;;10.80;9.80;;;17.50;99.90;;;;;;4972819;28;20935;-90
2022/08/31 02:11:56;;;;;;;12.27;10.73;;;17.40;99.90;;;;;;4987811;28;20445;-87
2022/08/31 02:14:24;;;;;;;11.90;10.53;;;17.40;99.90;;;;;;4970839;28;20296;-87
2022/08/31 02:16:56;;;;;;;11.77;10.50;;;17.40;99.90;;;;;;4966654;28;20189;-88
2022/08/31 02:19:21;;;;;;;12.70;10.60;;;17.40;99.90;;;;;;4970503;28;20504;-87
2022/08/31 02:21:47;;;;;;;12.73;11.43;;;17.40;99.90;;;;;;4973915;28;20959;-88
2022/08/31 02:24:12;;;;;;;12.73;11.13;;;17.30;99.90;;;;;;4977945;28;20872;-88
2022/08/31 02:26:39;;;;;;;14.67;13.20;;;17.30;99.90;;;;;;4971486;28;20195;-91
2022/08/31 02:29:08;;;;;;;12.03;10.83;;;17.20;99.90;;;;;;4976089;28;20279;-88
2022/08/31 02:32:05;;;;;;;12.77;11.50;;;17.40;99.90;;;;;;4975335;28;20432;-89
2022/08/31 02:34:33;;;;;;;13.00;11.80;;;17.40;99.90;;;;;;4984304;28;21262;-89
2022/08/31 02:36:59;;;;;;;13.43;12.13;;;17.40;99.90;;;;;;4986385;28;20438;-90
2022/08/31 02:39:24;;;;;;;12.50;11.17;;;17.40;99.90;;;;;;4972111;28;21829;-88
2022/08/31 02:41:50;;;;;;;14.17;12.07;;;17.50;99.90;;;;;;4971363;28;20189;-89
2022/08/31 02:44:16;;;;;;;13.73;12.43;;;17.40;99.90;;;;;;4973442;28;20202;-88
2022/08/31 02:46:44;;;;;;;12.43;11.37;;;17.40;99.90;;;;;;4967899;28;20726;-89
2022/08/31 02:49:29;;;;;;;13.97;11.30;;;17.40;99.90;;;;;;4974695;28;20481;-89
2022/08/31 02:52:26;;;;;;;11.53;10.43;;;17.40;99.90;;;;;;4976896;28;20697;-88
2022/08/31 02:55:11;;;;;;;11.33;9.07;;;17.80;99.90;;;;;;4968841;28;20463;-90
2022/08/31 02:57:38;;;;;;;11.03;9.83;;;17.90;99.90;;;;;;4970915;28;20691;-90
2022/08/31 03:00:06;;;;;;;12.40;11.27;;;17.90;99.90;;;;;;4971403;28;20453;-89
2022/08/31 03:02:32;;;;;;;12.90;11.10;;;17.80;99.90;;;;;;4981031;28;20444;-90
2022/08/31 03:05:00;;;;;;;12.93;11.70;;;17.70;99.90;;;;;;4966958;28;20444;-90
2022/08/31 03:07:38;;;;;;;12.80;11.13;;;17.60;99.90;;;;;;4974138;28;20465;-91
2022/08/31 03:10:12;;;;;;;13.00;11.60;;;17.60;99.90;;;;;;4970990;28;21320;-90
2022/08/31 03:12:38;;;;;;;12.20;11.00;;;17.70;99.90;;;;;;4969776;28;20440;-89
2022/08/31 03:15:05;;;;;;;11.23;10.13;;;17.70;99.90;;;;;;4976082;28;20490;-89
2022/08/31 03:17:31;;;;;;;13.50;12.27;;;17.80;99.90;;;;;;4980154;28;20186;-89
2022/08/31 03:19:59;;;;;;;17.70;12.90;;;17.90;99.90;;;;;;4966986;28;20459;-89
2022/08/31 03:22:26;;;;;;;14.57;13.10;;;17.50;99.90;;;;;;4973586;28;20546;-90
2022/08/31 03:24:51;;;;;;;15.00;12.93;;;17.40;99.90;;;;;;4973699;28;20566;-89
2022/08/31 03:27:20;;;;;;;15.50;14.03;;;17.30;99.90;;;;;;4971967;28;20494;-90
2022/08/31 03:29:45;;;;;;;15.67;14.07;;;17.20;99.90;;;;;;4975069;28;20448;-90
2022/08/31 03:32:11;;;;;;;16.00;14.47;;;17.20;99.90;;;;;;4954393;28;20189;-90
2022/08/31 03:34:37;;;;;;;14.13;12.83;;;17.20;99.90;;;;;;4971552;28;20217;-89
2022/08/31 03:37:02;;;;;;;14.73;13.40;;;17.10;99.90;;;;;;4987720;28;20665;-89
2022/08/31 03:39:54;;;;;;;16.17;14.00;;;17.30;99.90;;;;;;4992516;28;20211;-90
2022/08/31 03:42:20;;;;;;;15.33;13.93;;;17.30;99.90;;;;;;4989628;28;20193;-90
2022/08/31 03:44:49;;;;;;;14.53;13.20;;;17.40;99.90;;;;;;4989429;28;20445;-91
2022/08/31 03:47:15;;;;;;;14.47;13.13;;;17.40;99.90;;;;;;4978757;28;20504;-90
2022/08/31 03:49:44;;;;;;;12.43;11.43;;;17.40;99.90;;;;;;4972205;28;20477;-90
2022/08/31 03:52:13;;;;;;;12.70;11.33;;;17.60;99.90;;;;;;4970488;28;20472;-90
2022/08/31 03:54:42;;;;;;;13.07;11.50;;;17.80;99.90;;;;;;4973645;28;20472;-90
2022/08/31 03:57:08;;;;;;;13.60;11.70;;;17.90;99.90;;;;;;4986875;28;20541;-90
2022/08/31 04:00:11;;;;;;;13.63;11.53;;;17.80;99.90;;;;;;4977563;28;20448;-91
2022/08/31 04:02:38;;;;;;;14.43;13.13;;;17.80;99.90;;;;;;4969715;28;20539;-89
2022/08/31 04:05:12;;;;;;;14.30;12.80;;;17.70;99.90;;;;;;4972619;28;21830;-91
2022/08/31 04:07:38;;;;;;;14.47;13.00;;;17.50;99.90;;;;;;4971999;28;20472;-91
2022/08/31 04:10:06;;;;;;;14.60;12.10;;;17.50;99.90;;;;;;4970556;28;20535;-90
2022/08/31 04:12:31;;;;;;;13.73;12.50;;;17.60;99.90;;;;;;4974458;28;20464;-91
2022/08/31 04:15:01;;;;;;;13.20;12.00;;;17.70;99.90;;;;;;4973572;28;20622;-90
2022/08/31 04:17:27;;;;;;;13.03;11.77;;;17.70;99.90;;;;;;4965325;28;20181;-90
2022/08/31 04:20:04;;;;;;;13.63;12.40;;;17.70;99.90;;;;;;4971756;28;20441;-89
2022/08/31 04:22:48;;;;;;;12.30;10.90;;;17.80;99.90;;;;;;4970487;28;20444;-88
2022/08/31 04:25:13;;;;;;;12.43;11.23;;;17.70;99.90;;;;;;4977348;28;20456;-88
2022/08/31 04:27:39;;;;;;;13.47;12.17;;;17.80;99.90;;;;;;4976418;28;20441;-89
2022/08/31 04:30:06;;;;;;;14.00;12.70;;;17.80;99.90;;;;;;4977551;28;20194;-90
2022/08/31 04:32:32;;;;;;;12.67;11.47;;;17.80;99.90;;;;;;4975885;28;20185;-90
2022/08/31 04:35:26;;;;;;;13.50;12.20;;;17.90;99.90;;;;;;4972765;28;20488;-89
2022/08/31 04:37:51;;;;;;;12.70;11.50;;;17.80;99.90;;;;;;4968743;28;20452;-89
2022/08/31 04:40:18;;;;;;;13.97;12.63;;;17.70;99.90;;;;;;4974673;28;20816;-89
2022/08/31 04:42:45;;;;;;;13.20;11.87;;;17.70;99.90;;;;;;4977461;28;20408;-91
2022/08/31 04:45:14;;;;;;;13.87;12.30;;;17.60;99.90;;;;;;4976331;28;21385;-89
2022/08/31 04:47:41;;;;;;;13.80;12.60;;;17.50;99.90;;;;;;4971943;28;20440;-91
2022/08/31 04:50:08;;;;;;;14.23;12.90;;;17.50;99.90;;;;;;4986311;28;20444;-89
2022/08/31 04:52:35;;;;;;;13.93;12.43;;;17.40;99.90;;;;;;4977093;28;20443;-89
2022/08/31 04:55:03;;;;;;;15.30;13.90;;;17.30;99.90;;;;;;4976668;28;20542;-89
2022/08/31 04:57:30;;;;;;;16.17;14.70;;;17.10;99.90;;;;;;4967158;28;20463;-89
2022/08/31 04:59:56;;;;;;;16.67;14.90;;;17.10;99.90;;;;;;4968043;28;20536;-88
2022/08/31 05:02:22;;;;;;;15.10;13.60;;;17.20;99.90;;;;;;4974455;28;20433;-90
2022/08/31 05:04:47;;;;;;;14.53;13.13;;;17.20;99.90;;;;;;4976622;28;20448;-90
2022/08/31 05:07:15;;;;;;;14.33;13.13;;;17.30;99.90;;;;;;4970104;28;20706;-89
2022/08/31 05:09:41;;;;;;;15.23;13.63;;;17.30;99.90;;;;;;4983044;28;20212;-89
2022/08/31 05:12:09;;;;;;;16.00;14.60;;;17.30;99.90;;;;;;4968320;28;20447;-90
2022/08/31 05:14:35;;;;;;;13.53;12.33;;;17.30;99.90;;;;;;4976995;28;20311;-89
2022/08/31 05:17:00;;;;;;;14.27;12.93;;;17.20;99.90;;;;;;4972669;28;20524;-88
2022/08/31 05:19:43;;;;;;;13.00;11.80;;;17.00;99.90;;;;;;4974274;28;20340;-87
2022/08/31 05:22:09;;;;;;;11.97;10.77;;;17.00;99.90;;;;;;4963998;28;20209;-90
2022/08/31 05:24:37;;;;;;;13.13;11.73;;;17.00;99.90;;;;;;4984153;28;20452;-90
2022/08/31 05:27:05;;;;;;;12.03;10.73;;;17.00;99.90;;;;;;4971081;28;20181;-91
2022/08/31 05:29:31;;;;;;;12.70;11.40;;;17.00;99.90;;;;;;4970554;28;21010;-90
2022/08/31 05:31:56;;;;;;;12.10;11.10;;;17.00;99.90;;;;;;4971824;28;20495;-91
2022/08/31 05:34:22;;;;;;;11.23;10.23;;;17.10;99.90;;;;;;4967207;28;20272;-90
2022/08/31 05:36:55;;;;;;;11.00;10.00;;;17.00;99.90;;;;;;4963666;28;20220;-90
2022/08/31 05:39:21;;;;;;;10.63;9.73;;;17.10;99.90;;;;;;4959829;28;20197;-88
2022/08/31 05:41:47;;;;;;;11.83;10.73;;;17.00;99.90;;;;;;4966068;28;20502;-90
2022/08/31 05:44:15;;;;;;;11.10;9.93;;;17.10;99.90;;;;;;4972381;28;20721;-89
2022/08/31 05:46:42;;;;;;;10.80;9.70;;;17.10;99.90;;;;;;4974967;28;20475;-90
2022/08/31 05:49:08;;;;;;;9.73;8.93;;;17.20;99.90;;;;;;4973317;28;20441;-90
2022/08/31 05:51:35;;;;;;;11.77;10.63;;;17.30;99.90;;;;;;4976066;28;20437;-89
2022/08/31 05:54:01;;;;;;;10.90;9.90;;;17.30;99.90;;;;;;4974536;28;21072;-89
2022/08/31 05:56:27;;;;;;;10.67;9.70;;;17.30;99.90;;;;;;4971273;28;20446;-90
2022/08/31 05:58:53;;;;;;;11.20;10.10;;;17.40;99.90;;;;;;4972753;28;20460;-90
2022/08/31 06:01:31;;;;;;;11.80;10.13;;;17.30;99.90;;;;;;4972101;28;20448;-90
2022/08/31 06:03:58;;;;;;;12.50;11.33;;;17.30;99.90;;;;;;4975837;28;20989;-89
2022/08/31 06:06:24;;;;;;;12.93;11.80;;;17.30;99.90;;;;;;4973960;28;20436;-89
2022/08/31 06:08:56;;;;;;;13.50;12.10;;;17.30;99.90;;;;;;4976026;28;20449;-90
2022/08/31 06:11:25;;;;;;;12.83;11.53;;;17.30;99.90;;;;;;4971285;28;20473;-88
2022/08/31 06:13:52;;;;;;;11.30;10.30;;;17.20;99.90;;;;;;4963103;28;20488;-89
2022/08/31 06:16:21;;;;;;;11.50;10.50;;;17.20;99.90;;;;;;4972595;28;20490;-90
2022/08/31 06:18:49;;;;;;;11.57;10.03;;;17.20;99.90;;;;;;4971023;28;20658;-88
2022/08/31 06:21:17;;;;;;;8.97;8.17;;;17.10;99.90;;;;;;4970500;28;20468;-87
2022/08/31 06:23:43;;;;;;;10.10;9.20;;;17.10;99.90;;;;;;4965660;28;20491;-88
2022/08/31 06:26:11;;;;;;;10.20;9.20;;;17.10;99.90;;;;;;4974019;28;20850;-88
2022/08/31 06:28:38;;;;;;;11.60;9.90;;;17.10;99.90;;;;;;4968129;28;20675;-88
2022/08/31 06:31:10;;;;;;;10.70;9.70;;;17.20;99.90;;;;;;4983240;28;20473;-88
2022/08/31 06:33:37;;;;;;;9.50;8.70;;;17.10;99.90;;;;;;4973672;28;20457;-88
2022/08/31 06:36:10;;;;;;;10.37;9.37;;;17.20;99.90;;;;;;4970340;28;20966;-88
2022/08/31 06:38:35;;;;;;;10.43;9.30;;;17.20;99.90;;;;;;4986254;28;20544;-86
2022/08/31 06:41:10;;;;;;;11.63;10.27;;;17.20;99.90;;;;;;4968664;28;20579;-87
2022/08/31 06:43:35;;;;;;;9.63;8.73;;;17.20;99.90;;;;;;4972459;28;20231;-87
2022/08/31 06:46:01;;;;;;;9.70;8.80;;;17.20;99.90;;;;;;4970583;28;20951;-87
2022/08/31 06:48:26;;;;;;;10.67;9.57;;;17.30;99.90;;;;;;4964914;28;20186;-88
2022/08/31 06:50:57;;;;;;;10.13;9.13;;;17.30;99.90;;;;;;4966228;28;20600;-87
2022/08/31 06:53:35;;;;;;;10.67;9.73;;;17.20;99.90;;;;;;4974621;28;20741;-88
2022/08/31 06:56:12;;;;;;;10.43;9.43;;;17.20;99.90;;;;;;4971843;28;20464;-88
2022/08/31 06:58:39;;;;;;;10.67;9.73;;;17.30;99.90;;;;;;4975860;28;20526;-89
2022/08/31 07:01:10;;;;;;;9.13;8.43;;;17.30;99.90;;;;;;4963557;28;20950;-88
2022/08/31 07:03:38;;;;;;;10.33;9.43;;;17.30;99.90;;;;;;4980508;28;20448;-88
2022/08/31 07:06:16;;;;;;;10.67;9.53;;;17.30;99.90;;;;;;4974060;28;20446;-88
2022/08/31 07:08:44;;;;;;;10.20;9.10;;;17.30;99.90;;;;;;4969099;28;20444;-88
2022/08/31 07:11:19;;;;;;;10.27;9.30;;;17.30;99.90;;;;;;4974086;28;20586;-88
2022/08/31 07:13:46;;;;;;;10.77;9.80;;;17.30;99.90;;;;;;4969011;28;20639;-88
2022/08/31 07:16:14;;;;;;;10.57;9.67;;;17.30;99.90;;;;;;4970303;28;20488;-88
2022/08/31 07:18:41;;;;;;;10.37;9.30;;;17.30;99.90;;;;;;4966889;28;20982;-88
2022/08/31 07:21:15;;;;;;;10.57;9.50;;;17.30;99.90;;;;;;4979575;28;20837;-88
2022/08/31 07:23:42;;;;;;;10.37;8.70;;;17.10;99.90;;;;;;4990069;28;20536;-88
2022/08/31 07:26:11;;;;;;;10.27;9.37;;;17.00;99.90;;;;;;4974815;28;20436;-88
2022/08/31 07:28:38;;;;;;;9.40;8.60;;;17.00;99.90;;;;;;4970732;28;20441;-87
2022/08/31 07:31:04;;;;;;;10.00;9.10;;;17.10;99.90;;;;;;4976959;28;20465;-87
2022/08/31 07:33:39;;;;;;;10.27;9.33;;;17.20;99.90;;;;;;4987304;28;20638;-88
2022/08/31 07:36:13;;;;;;;9.97;9.07;;;17.30;99.90;;;;;;4974753;28;21018;-87
2022/08/31 07:44:11;;;;;;;9.20;8.40;;;17.30;99.90;;;;;;4974449;28;20956;-87
2022/08/31 07:46:37;;;;;;;12.30;9.73;;;17.30;99.90;;;;;;4969907;28;20527;-87
2022/08/31 07:49:07;;;;;;;10.30;9.40;;;17.20;99.90;;;;;;4965782;28;20690;-88
2022/08/31 07:51:33;;;;;;;10.00;9.10;;;17.30;99.90;;;;;;4987936;28;20440;-88
2022/08/31 07:53:59;;;;;;;9.50;8.50;;;17.40;99.90;;;;;;4969647;28;20476;-87
2022/08/31 07:56:25;;;;;;;10.07;9.17;;;17.50;99.90;;;;;;4984414;28;20248;-87
2022/08/31 07:58:50;;;;;;;9.40;8.60;;;17.50;99.90;;;;;;4989636;28;20437;-87
2022/08/31 08:01:17;;;;;;;9.23;8.50;;;17.50;99.90;;;;;;4972697;28;20186;-87
2022/08/31 08:03:43;;;;;;;11.37;9.77;;;17.60;99.90;;;;;;4979607;28;20243;-87
2022/08/31 08:06:14;;;;;;;9.50;8.70;;;17.60;99.90;;;;;;4974770;28;20779;-87
2022/08/31 08:08:43;;;;;;;10.73;9.30;;;17.60;99.90;;;;;;4975796;28;20459;-87
2022/08/31 08:11:22;;;;;;;9.57;8.70;;;17.60;99.90;;;;;;4976204;28;20873;-87
2022/08/31 08:13:50;;;;;;;9.80;8.90;;;17.60;99.90;;;;;;4976998;28;20488;-88
2022/08/31 08:16:16;;;;;;;9.70;8.90;;;17.60;99.90;;;;;;4973197;28;20552;-88
2022/08/31 08:18:44;;;;;;;10.90;9.90;;;17.60;99.90;;;;;;4972614;28;20806;-88
2022/08/31 08:21:09;;;;;;;10.93;10.00;;;17.50;99.90;;;;;;4975086;28;20182;-88
2022/08/31 08:23:35;;;;;;;12.50;10.03;;;17.40;99.90;;;;;;4986933;28;20488;-88
2022/08/31 08:26:07;;;;;;;10.50;9.60;;;17.20;99.90;;;;;;4968544;28;20217;-88
2022/08/31 08:28:33;;;;;;;10.10;9.20;;;17.20;99.90;;;;;;4994430;28;20652;-88
2022/08/31 08:31:04;;;;;;;9.70;8.83;;;17.20;99.90;;;;;;4963340;28;20451;-87
2022/08/31 08:33:30;;;;;;;10.47;9.40;;;17.20;99.90;;;;;;4977197;28;20264;-88
2022/08/31 08:36:06;;;;;;;9.20;8.40;;;17.20;99.90;;;;;;4976799;28;22199;-88
2022/08/31 08:43:42;;;;;;;10.17;9.27;;;17.20;99.90;;;;;;5032453;28;20477;-95
2022/08/31 08:46:49;;;;;;;9.83;9.03;;;17.30;99.90;;;;;;5016359;28;20450;-88
2022/08/31 08:49:38;;;;;;;10.83;9.80;;;17.40;99.90;;;;;;5025997;28;20472;-88
2022/08/31 08:52:13;;;;;;;11.10;10.00;;;17.30;99.90;;;;;;5014852;28;20459;-88
2022/08/31 08:54:45;;;;;;;10.57;9.63;;;17.40;99.90;;;;;;5018742;28;21079;-88
2022/08/31 08:57:25;;;;;;;10.50;9.60;;;17.40;99.90;;;;;;5015353;28;20438;-87
2022/08/31 08:59:56;;;;;;;11.60;10.40;;;17.50;99.90;;;;;;5016426;28;20673;-87
2022/08/31 09:02:46;;;;;;;11.20;10.10;;;17.40;99.90;;;;;;5013628;28;20442;-86
2022/08/31 09:05:33;;;;;;;11.63;10.57;;;17.40;99.90;;;;;;5003136;28;20687;-87
2022/08/31 09:08:30;;;;;;;10.97;10.00;;;17.50;99.90;;;;;;5032824;28;20863;-87
2022/08/31 09:11:05;;;;;;;11.20;10.20;;;17.60;99.90;;;;;;5011490;28;20561;-88
2022/08/31 09:13:38;;;;;;;10.67;9.60;;;17.60;99.90;;;;;;5021449;28;20477;-87
2022/08/31 09:16:20;;;;;;;11.30;10.20;;;17.80;99.90;;;;;;5016234;28;20443;-87
2022/08/31 09:18:52;;;;;;;9.97;9.07;;;17.90;99.90;;;;;;5022622;28;20806;-85
2022/08/31 09:21:24;;;;;;;11.07;10.10;;;18.00;99.90;;;;;;5012929;28;20544;-84
2022/08/31 09:24:11;;;;;;;10.90;9.77;;;18.10;99.90;;;;;;5028435;28;20430;-85
2022/08/31 09:27:16;;;;;;;9.83;9.03;;;18.30;99.90;;;;;;5011964;28;20454;-85
2022/08/31 09:29:53;;;;;;;9.00;8.20;;;18.50;99.90;;;;;;5023607;28;21110;-85
2022/08/31 09:32:25;;;;;;;9.13;8.23;;;18.70;99.90;;;;;;5011054;28;20869;-86
2022/08/31 09:34:57;;;;;;;10.20;9.20;;;19.00;99.90;;;;;;5015518;28;20999;-86
2022/08/31 09:37:32;;;;;;;9.37;8.53;;;19.10;99.90;;;;;;5032640;28;20938;-86
2022/08/31 09:40:16;;;;;;;8.97;8.17;;;19.20;99.90;;;;;;5020168;28;20539;-86
2022/08/31 09:42:48;;;;;;;9.20;8.40;;;19.20;99.90;;;;;;5023868;28;20445;-86
2022/08/31 09:45:25;;;;;;;9.83;8.93;;;19.30;99.90;;;;;;5021647;28;20437;-86
2022/08/31 09:48:03;;;;;;;10.00;9.20;;;19.50;99.90;;;;;;5011989;28;20441;-86
2022/08/31 09:50:31;;;;;;;9.87;8.77;;;19.80;99.90;;;;;;5017875;28;20433;-86
2022/08/31 09:56:16;;;;;;;9.27;8.40;;;20.10;99.90;;;;;;5026567;28;20499;-86
2022/08/31 09:58:45;;;;;;;9.77;8.87;;;20.10;99.90;;;;;;5026178;28;20529;-86
2022/08/31 10:01:16;;;;;;;10.40;9.10;;;20.00;99.90;;;;;;5014618;28;20791;-87
2022/08/31 10:03:46;;;;;;;11.37;10.17;;;20.00;99.90;;;;;;5013933;28;20502;-86
2022/08/31 10:06:36;;;;;;;10.20;9.40;;;19.60;99.90;;;;;;5009074;28;20449;-86
2022/08/31 10:09:10;;;;;;;11.00;10.03;;;19.30;99.90;;;;;;5016556;28;21179;-86
2022/08/31 10:11:38;;;;;;;11.53;10.60;;;19.60;99.90;;;;;;5017478;28;20461;-86
2022/08/31 10:14:22;;;;;;;13.10;11.80;;;19.80;99.90;;;;;;5013725;28;20998;-86
2022/08/31 10:16:54;;;;;;;12.90;11.73;;;19.80;99.90;;;;;;5028838;28;20434;-86
2022/08/31 10:19:33;;;;;;;13.17;11.97;;;19.90;99.90;;;;;;5015912;28;20442;-86
2022/08/31 10:22:24;;;;;;;13.90;12.50;;;19.90;99.90;;;;;;5013268;28;20521;-86
2022/08/31 10:25:03;;;;;;;13.07;11.87;;;20.10;99.90;;;;;;5019980;28;20525;-86
2022/08/31 10:27:37;;;;;;;13.33;12.13;;;20.60;99.90;;;;;;5004907;28;20456;-86
2022/08/31 10:30:20;;;;;;;13.00;11.80;;;20.90;99.90;;;;;;5027195;28;20794;-86
2022/08/31 10:32:55;;;;;;;13.57;11.87;;;21.10;99.90;;;;;;5012247;28;20441;-86
2022/08/31 10:35:36;;;;;;;15.17;13.27;;;21.40;99.90;;;;;;5017672;28;20481;-86
2022/08/31 10:38:24;;;;;;;13.07;12.07;;;21.10;99.90;;;;;;5014229;28;20436;-87
2022/08/31 10:41:12;;;;;;;11.50;10.37;;;21.00;99.90;;;;;;5017054;28;20438;-86
2022/08/31 10:44:04;;;;;;;12.57;11.37;;;21.10;99.90;;;;;;5033427;28;20580;-86
2022/08/31 10:46:33;;;;;;;14.20;12.77;;;21.00;99.90;;;;;;4988642;28;20461;-85
2022/08/31 10:49:02;;;;;;;14.43;13.13;;;20.40;99.90;;;;;;5016754;28;20430;-86
2022/08/31 10:52:05;;;;;;;15.10;13.80;;;20.00;99.90;;;;;;5018326;28;20461;-86
2022/08/31 10:54:59;;;;;;;14.80;13.13;;;20.00;99.90;;;;;;4937033;28;20481;-86
2022/08/31 10:58:02;;;;;;;15.03;13.53;;;20.00;99.90;;;;;;5027771;28;20441;-86
2022/08/31 11:00:53;;;;;;;13.80;12.47;;;20.20;99.90;;;;;;5013037;28;20536;-86
2022/08/31 11:03:37;;;;;;;13.70;12.57;;;20.40;99.90;;;;;;5014456;28;20450;-87
2022/08/31 11:06:40;;;;;;;14.13;12.87;;;20.10;99.90;;;;;;5022817;28;20744;-86
2022/08/31 11:09:53;;;;;;;15.80;14.40;;;19.70;99.90;;;;;;5015364;28;21074;-87
2022/08/31 11:12:39;;;;;;;14.80;13.50;;;19.50;99.90;;;;;;5017833;28;20444;-86
2022/08/31 11:15:19;;;;;;;15.10;13.70;;;19.60;99.90;;;;;;5013021;28;20489;-86
2022/08/31 11:18:12;;;;;;;14.60;13.20;;;19.70;99.90;;;;;;5031305;28;20438;-86
2022/08/31 11:20:46;;;;;;;14.73;13.40;;;19.60;99.90;;;;;;5009243;28;20450;-86
2022/08/31 11:23:25;;;;;;;15.23;13.77;;;19.80;99.90;;;;;;5013634;28;20468;-87
2022/08/31 11:26:00;;;;;;;15.10;13.80;;;19.90;99.90;;;;;;5012781;28;20446;-86
2022/08/31 11:29:13;;;;;;;16.13;14.70;;;20.10;99.90;;;;;;5031642;28;21560;-87
2022/08/31 11:31:40;;;;;;;15.00;13.70;;;20.30;99.90;;;;;;4956312;28;20445;-86
2022/08/31 11:34:24;;;;;;;14.70;13.30;;;20.10;99.90;;;;;;5001673;28;20477;-86
2022/08/31 11:37:07;;;;;;;15.43;13.83;;;19.80;99.90;;;;;;5021401;28;21368;-86
2022/08/31 11:39:36;;;;;;;14.80;13.30;;;19.60;99.90;;;;;;5023931;28;20438;-86
2022/08/31 11:42:03;;;;;;;12.00;10.90;;;19.50;99.90;;;;;;5021341;28;20508;-86
2022/08/31 11:44:29;;;;;;;15.67;12.73;;;19.80;99.90;;;;;;5021317;28;20537;-86
2022/08/31 11:47:34;;;;;;;12.90;11.80;;;19.90;99.90;;;;;;5022412;28;20565;-86
2022/08/31 11:50:24;;;;;;;12.77;11.67;;;20.00;99.90;;;;;;5020417;28;20210;-86
2022/08/31 11:52:52;;;;;;;12.60;11.40;;;20.20;99.90;;;;;;5019881;28;20937;-87
2022/08/31 11:55:20;;;;;;;13.70;12.60;;;20.40;99.90;;;;;;5016334;28;20481;-87
2022/08/31 11:58:10;;;;;;;12.97;11.17;;;20.40;99.90;;;;;;5025750;28;20430;-87
2022/08/31 12:00:46;;;;;;;11.77;10.77;;;20.40;99.90;;;;;;5017265;28;20850;-88
2022/08/31 12:03:34;;;;;;;12.60;11.30;;;20.40;99.90;;;;;;5039581;28;20449;-87
2022/08/31 12:06:00;;;;;;;11.80;10.80;;;20.80;99.90;;;;;;5015521;28;20517;-87
2022/08/31 12:08:31;;;;;;;11.00;10.10;;;20.90;99.90;;;;;;5020654;28;20449;-87
2022/08/31 12:11:05;;;;;;;12.43;11.20;;;21.10;99.90;;;;;;5019052;28;20261;-87
2022/08/31 12:13:47;;;;;;;11.47;10.50;;;21.10;99.90;;;;;;5015530;28;20480;-87
2022/08/31 12:16:46;;;;;;;12.13;11.13;;;20.70;99.90;;;;;;5035144;28;20445;-87
2022/08/31 12:25:53;;;;;;;11.63;10.53;;;19.70;99.90;;;;;;5033010;28;20449;-87
2022/08/31 12:28:33;;;;;;;10.73;9.80;;;19.70;99.90;;;;;;5021360;28;21033;-86
2022/08/31 12:31:06;;;;;;;10.30;9.37;;;20.10;99.90;;;;;;5016463;28;20438;-86
2022/08/31 12:33:34;;;;;;;11.53;10.43;;;20.20;99.90;;;;;;5019911;28;20561;-86
2022/08/31 12:36:11;;;;;;;12.03;10.20;;;20.20;99.90;;;;;;5018282;28;20442;-86
2022/08/31 12:38:37;;;;;;;10.40;9.50;;;20.40;99.90;;;;;;5016523;28;20439;-85
2022/08/31 12:41:04;;;;;;;11.00;9.70;;;20.60;99.90;;;;;;5014371;28;20844;-86
2022/08/31 12:43:47;;;;;;;10.60;9.60;;;21.00;99.90;;;;;;5019951;28;20192;-86
2022/08/31 12:46:28;;;;;;;11.87;10.57;;;21.50;99.90;;;;;;5016596;28;20752;-86
2022/08/31 12:49:14;;;;;;;11.97;10.97;;;21.70;99.90;;;;;;5014166;28;20446;-86
2022/08/31 12:51:52;;;;;;;10.83;9.93;;;22.10;99.90;;;;;;5021694;28;20504;-85
2022/08/31 12:54:45;;;;;;;10.90;9.90;;;22.10;99.90;;;;;;5021149;28;20477;-86
2022/08/31 12:57:29;;;;;;;10.40;9.50;;;22.50;99.90;;;;;;5016580;28;20832;-86
2022/08/31 13:00:07;;;;;;;11.30;10.30;;;22.80;99.90;;;;;;5019594;28;20465;-86
2022/08/31 13:02:38;;;;;;;10.40;9.50;;;22.90;99.90;;;;;;5019096;28;21161;-86
2022/08/31 13:05:19;;;;;;;11.40;9.50;;;22.70;99.90;;;;;;5021461;28;20536;-87
2022/08/31 13:07:48;;;;;;;10.90;9.70;;;22.90;99.90;;;;;;5018283;28;20426;-87
2022/08/31 13:10:22;;;;;;;11.33;10.17;;;22.90;99.90;;;;;;5020721;28;20441;-86
2022/08/31 13:13:06;;;;;;;10.20;9.30;;;22.60;99.90;;;;;;5018862;28;20549;-86
2022/08/31 13:15:36;;;;;;;11.57;10.67;;;22.50;99.90;;;;;;5012387;28;20506;-86
2022/08/31 13:18:13;;;;;;;9.73;8.50;;;22.60;99.90;;;;;;5018782;28;20457;-86
2022/08/31 13:20:42;;;;;;;11.07;10.10;;;22.80;99.90;;;;;;5020605;28;20561;-86
2022/08/31 13:23:12;;;;;;;12.27;11.17;;;23.00;99.90;;;;;;5016062;28;20442;-86
2022/08/31 13:25:38;;;;;;;10.30;9.40;;;22.70;99.90;;;;;;5019111;28;20454;-86
2022/08/31 13:28:24;;;;;;;10.40;9.53;;;22.60;99.90;;;;;;5018675;28;20434;-86